Sainte-Dorothee, Canada
Current Conditions -  °F | °C
As of 2:48 AM on Sunday 23 Nov 2014 (Local Time) from CYUL Reporting Station
Drizzle Drizzle  
Wind Chill: 31°   Ceiling: 400
Heat Index: 37°   Visibility: 2.5mi
Dew Point: 37°   Wind: 9mph
Humidity: 100%   Direction: 250°WSW
Pressure: 29.93"   Gusts: NA
Location:  45.53°N, 73.82°W
Report Text: CYUL 230748Z 25008KT 2 1/2SM -DZ BR OVC004 03/03 A2993 RMK ST8 SLP135
Loading
Personal Weather Stations






























Interactive Weather Map New forecast layout! Learn more

10-Day Weather Forecast

Advertisements
Track Severe Weather on mobile